MV Sea Wolf — WCW6738 — position and weather

sailwx.info

Track history (hours):
 
Tides and Currents Weather Stations Pressure Air Temp Water Temp Dewpoint Dewpoint Depression Visibility Wind Speed Wind Dir Waves Ship Positions

MV Sea Wolf

Owner: SEA WOLF MARINE TOWING & TRANSPORTATION, Bayonne, NJ. More information available from US FCC via Universal Licensing System and Coast Guard Vessel Documentation Center.

Last reported at 2015-Aug-31 00:06 UTC. Time now 2015-Sep-05 14:14 UTC.
Position N 40°30' W 074°10'.

Length 66 m; draft 10 m.

MMSI: 367002350.

Date/timePositionNaut miles runAvg speedWind from/ knotsBaromVisibWave heightAir tempDewpointWater temp
2015-Aug-31 00:06N 40°30' W 074°10'6 9.2
2015-Aug-30 23:28N 40°29' W 074°03'34 8.6
2015-Aug-30 19:33N 39°55' W 074°03'9 9.1
2015-Aug-30 18:33N 39°46' W 074°05'2 1.6
2015-Aug-30 17:33N 39°45' W 074°07'0 0.0
2015-Aug-30 16:33N 39°45' W 074°07'0 0.0
2015-Aug-30 15:33N 39°45' W 074°07'0 0.0
2015-Aug-30 14:33N 39°45' W 074°07'0 0.0
2015-Aug-30 13:33N 39°45' W 074°07'0 0.0
2015-Aug-30 12:33N 39°45' W 074°07'0 0.0
2015-Aug-30 11:33N 39°45' W 074°07'0 0.0
2015-Aug-30 10:33N 39°45' W 074°07'0 0.0
2015-Aug-30 09:33N 39°45' W 074°07'0 0.0
2015-Aug-30 08:33N 39°45' W 074°07'0 0.0
2015-Aug-30 07:33N 39°45' W 074°07'0 0.0
2015-Aug-30 06:33N 39°45' W 074°07'0 0.0
2015-Aug-30 05:33N 39°45' W 074°07'0 0.0
2015-Aug-30 04:33N 39°45' W 074°07'0 0.0
2015-Aug-30 03:33N 39°45' W 074°07'0 0.0
2015-Aug-30 02:33N 39°45' W 074°07'0 0.0
2015-Aug-30 01:33N 39°45' W 074°07'0 0.0
2015-Aug-30 00:30N 39°45' W 074°07'0 0.0
2015-Aug-29 23:33N 39°45' W 074°07'0 0.0
2015-Aug-29 22:33N 39°45' W 074°07'0 0.0
2015-Aug-29 21:33N 39°45' W 074°07'0 0.0
2015-Aug-29 20:33N 39°45' W 074°07'1 1.4
2015-Aug-29 19:33N 39°45' W 074°05'4 4.0
2015-Aug-29 18:33N 39°41' W 074°07'4 4.1
2015-Aug-29 17:33N 39°38' W 074°10'4 3.9
2015-Aug-29 16:33N 39°35' W 074°13'0 0.4
2015-Aug-29 15:33N 39°34' W 074°13'0 0.0
2015-Aug-29 14:33N 39°34' W 074°13'0 0.0
2015-Aug-29 13:31N 39°34' W 074°13'0 0.0
2015-Aug-29 12:33N 39°34' W 074°13'0 0.3
2015-Aug-29 11:33N 39°34' W 074°13'5 5.4
2015-Aug-29 10:33N 39°39' W 074°09'6 2.0
2015-Aug-29 07:15N 39°45' W 074°07'0 0.0
2015-Aug-29 06:33N 39°45' W 074°07'0 0.0
2015-Aug-29 05:33N 39°45' W 074°07'0 0.0
2015-Aug-29 04:33N 39°45' W 074°07'0 0.0
2015-Aug-29 03:33N 39°45' W 074°07'0 0.0
2015-Aug-29 02:33N 39°45' W 074°07'0 0.0
2015-Aug-29 01:33N 39°45' W 074°07'0 0.0
2015-Aug-29 00:33N 39°45' W 074°07'0 0.0
2015-Aug-28 23:33N 39°45' W 074°07'0 0.0
2015-Aug-28 22:33N 39°45' W 074°07'0 0.0
2015-Aug-28 21:33N 39°45' W 074°07'0 0.0
2015-Aug-28 20:33N 39°45' W 074°07'0 0.0
2015-Aug-28 19:33N 39°45' W 074°07'0 0.0
2015-Aug-28 18:33N 39°45' W 074°07'0 0.0
2015-Aug-28 17:33N 39°45' W 074°07'1 1.2
2015-Aug-28 16:33N 39°45' W 074°05'6 6.0
2015-Aug-28 15:33N 39°40' W 074°09'4 4.0
2015-Aug-28 14:33N 39°37' W 074°11'1 0.8
2015-Aug-28 13:33N 39°37' W 074°11'0 0.1
2015-Aug-28 12:33N 39°37' W 074°10'3 3.5
2015-Aug-28 11:33N 39°40' W 074°08'6 5.7
2015-Aug-28 10:33N 39°45' W 074°05'1 1.2
2015-Aug-28 09:34N 39°45' W 074°07'0 0.0
2015-Aug-28 08:33N 39°45' W 074°07'0 0.0
2015-Aug-28 07:33N 39°45' W 074°07'0 0.0
2015-Aug-28 06:33N 39°45' W 074°07'0 0.0
2015-Aug-28 05:33N 39°45' W 074°07'0 0.0
2015-Aug-28 04:33N 39°45' W 074°07'0 0.0
2015-Aug-28 03:33N 39°45' W 074°07'0 0.0
2015-Aug-28 02:33N 39°45' W 074°07'0 0.0
2015-Aug-28 01:33N 39°45' W 074°07'0 0.0
2015-Aug-28 00:33N 39°45' W 074°07'0 0.0
2015-Aug-27 23:33N 39°45' W 074°07'0 0.0
2015-Aug-27 22:33N 39°45' W 074°07'0 0.0
2015-Aug-27 21:33N 39°45' W 074°07'0 0.0
2015-Aug-27 20:33N 39°45' W 074°07'0 0.0
2015-Aug-27 19:33N 39°45' W 074°07'0 0.0
2015-Aug-27 18:33N 39°45' W 074°07'0 0.0
2015-Aug-27 17:33N 39°45' W 074°07'0 0.0
2015-Aug-27 16:33N 39°45' W 074°07'0 0.0
2015-Aug-27 15:33N 39°45' W 074°07'0 0.0
2015-Aug-27 14:33N 39°45' W 074°07'0 0.0
2015-Aug-27 13:33N 39°45' W 074°07'0 0.0
2015-Aug-27 12:33N 39°45' W 074°07'0 0.0
2015-Aug-27 11:34N 39°45' W 074°07'0 0.0
2015-Aug-27 10:34N 39°45' W 074°07'0 0.0
2015-Aug-27 09:33N 39°45' W 074°07'0 0.0
2015-Aug-27 08:34N 39°45' W 074°07'0 0.0
2015-Aug-27 07:33N 39°45' W 074°07'0 0.0
2015-Aug-27 06:34N 39°45' W 074°07'0 0.0
2015-Aug-27 05:33N 39°45' W 074°07'0 0.0
2015-Aug-27 04:33N 39°45' W 074°07'0 0.0
2015-Aug-27 03:33N 39°45' W 074°07'0 0.0
2015-Aug-27 02:33N 39°45' W 074°07'0 0.0
2015-Aug-27 01:33N 39°45' W 074°07'0 0.0
2015-Aug-27 00:33N 39°45' W 074°07'0 0.0
2015-Aug-26 23:34N 39°45' W 074°07'0 0.0
2015-Aug-26 22:33N 39°45' W 074°07'0 0.0
2015-Aug-26 21:33N 39°45' W 074°07'4 3.7
2015-Aug-26 20:33N 39°41' W 074°08'6 5.7
2015-Aug-26 19:34N 39°37' W 074°11'0 0.0
2015-Aug-26 18:33N 39°37' W 074°11'0 0.0
2015-Aug-26 17:33N 39°37' W 074°11'0 0.0
2015-Aug-26 16:33N 39°37' W 074°11'0 0.1
2015-Aug-26 15:33N 39°37' W 074°12'10 3.3
2015-Aug-26 12:33N 39°45' W 074°05'1 1.5
2015-Aug-26 11:34N 39°46' W 074°07'1 0.8
2015-Aug-26 10:33N 39°45' W 074°07'0 0.0
2015-Aug-26 09:33N 39°45' W 074°07'0 0.0
2015-Aug-26 08:33N 39°45' W 074°07'0 0.0
2015-Aug-26 07:33N 39°45' W 074°07'0 0.0
2015-Aug-26 06:33N 39°45' W 074°07'0 0.0
2015-Aug-26 05:33N 39°45' W 074°07'0 0.0
2015-Aug-26 04:33N 39°45' W 074°07'0 0.0
2015-Aug-26 03:33N 39°45' W 074°07'0 0.0
2015-Aug-26 02:33N 39°45' W 074°07'0 0.0
2015-Aug-26 01:33N 39°45' W 074°07'0 0.0
2015-Aug-26 00:33N 39°45' W 074°07'0 0.0
2015-Aug-25 23:33N 39°45' W 074°07'1 1.0
2015-Aug-25 22:33N 39°46' W 074°06'2 2.0
2015-Aug-25 21:33N 39°44' W 074°06'5 5.1
2015-Aug-25 20:33N 39°39' W 074°09'33 4.1
2015-Aug-25 12:31N 39°13' W 074°35'0 0.0
2015-Aug-25 04:26N 39°14' W 074°36'0 0.0
2015-Aug-25 03:19N 39°14' W 074°36'0 0.0
2015-Aug-25 02:33N 39°14' W 074°36'0 0.0
2015-Aug-25 01:30N 39°14' W 074°36'14 1.3
2015-Aug-24 14:31N 39°22' W 074°21'7 6.6
2015-Aug-24 13:30N 39°28' W 074°16'7 7.0
2015-Aug-24 12:33N 39°33' W 074°12'7 7.0
2015-Aug-24 11:33N 39°40' W 074°08'6 5.9
2015-Aug-24 10:33N 39°45' W 074°05'1 1.3
2015-Aug-24 09:33N 39°45' W 074°07'0 0.0
2015-Aug-24 08:33N 39°45' W 074°07'0 0.0
2015-Aug-24 07:33N 39°45' W 074°07'0 0.0
2015-Aug-24 06:33N 39°45' W 074°07'0 0.0
2015-Aug-24 05:33N 39°45' W 074°07'0 0.0
2015-Aug-24 04:33N 39°45' W 074°07'0 0.0
2015-Aug-24 03:33N 39°45' W 074°07'0 0.0
2015-Aug-24 02:33N 39°45' W 074°07'0 0.0
2015-Aug-24 01:33N 39°45' W 074°07'0 0.0
2015-Aug-24 00:33N 39°45' W 074°07'0 0.0
2015-Aug-23 23:32N 39°45' W 074°07'0 0.0
2015-Aug-23 22:33N 39°45' W 074°07'0 0.0
2015-Aug-23 21:33N 39°45' W 074°07'0 0.0
2015-Aug-23 20:33N 39°45' W 074°07'0 0.0
2015-Aug-23 19:33N 39°45' W 074°07'0 0.0
2015-Aug-23 18:33N 39°45' W 074°07'0 0.0
2015-Aug-23 17:33N 39°45' W 074°07'0 0.0
2015-Aug-23 16:33N 39°45' W 074°07'0 0.0
2015-Aug-23 15:33N 39°45' W 074°07'0 0.0
2015-Aug-23 14:33N 39°45' W 074°07'0 0.0
2015-Aug-23 13:33N 39°45' W 074°07'0 0.0
2015-Aug-23 12:30N 39°45' W 074°07'0 0.0
2015-Aug-23 11:28N 39°45' W 074°07'0 0.0
2015-Aug-23 10:33N 39°45' W 074°07'0 0.0
2015-Aug-23 09:33N 39°45' W 074°07'0 0.0
2015-Aug-23 08:33N 39°45' W 074°07'0 0.0
2015-Aug-23 07:33N 39°45' W 074°07'0 0.0
2015-Aug-23 06:33N 39°45' W 074°07'0 0.0
2015-Aug-23 05:33N 39°45' W 074°07'0 0.0
2015-Aug-23 04:33N 39°45' W 074°07'0 0.0
2015-Aug-23 03:31N 39°45' W 074°07'0 0.0
2015-Aug-23 02:32N 39°45' W 074°07'0 0.0
2015-Aug-23 01:33N 39°45' W 074°07'0 0.0
2015-Aug-23 00:33N 39°45' W 074°07'0 0.0
2015-Aug-22 23:33N 39°45' W 074°07'0 0.0
2015-Aug-22 22:33N 39°45' W 074°07'0 0.0
2015-Aug-22 21:32N 39°45' W 074°07'0 0.0
2015-Aug-22 20:33N 39°45' W 074°07'0 0.0
2015-Aug-22 19:32N 39°45' W 074°07'0 0.0
2015-Aug-22 18:33N 39°45' W 074°07'0 0.0
2015-Aug-22 17:33N 39°45' W 074°07'2 1.7
2015-Aug-22 16:33N 39°44' W 074°06'4 4.3
2015-Aug-22 15:33N 39°40' W 074°09'4 4.2
2015-Aug-22 14:33N 39°37' W 074°12'0 0.1
2015-Aug-22 13:33N 39°37' W 074°11'0 0.0
2015-Aug-22 12:33N 39°37' W 074°11'2 2.1
2015-Aug-22 11:33N 39°38' W 074°10'6 6.4
2015-Aug-22 10:33N 39°44' W 074°06'2 0.1
2015-Aug-21 18:19N 39°45' W 074°07'0 0.0
2015-Aug-21 17:33N 39°45' W 074°07'0 0.0
2015-Aug-21 16:33N 39°45' W 074°07'0 0.0
2015-Aug-21 15:33N 39°45' W 074°07'0 0.4
2015-Aug-21 14:33N 39°46' W 074°07'0 0.4
2015-Aug-21 13:33N 39°45' W 074°07'0 0.0
2015-Aug-21 12:33N 39°45' W 074°07'0 0.0
2015-Aug-21 11:33N 39°45' W 074°07'0 0.0
2015-Aug-21 10:33N 39°45' W 074°07'0 0.0
2015-Aug-21 09:33N 39°45' W 074°07'0 0.0
2015-Aug-21 08:33N 39°45' W 074°07'0 0.0
2015-Aug-21 07:33N 39°45' W 074°07'0 0.0
2015-Aug-21 06:33N 39°45' W 074°07'0 0.0
2015-Aug-21 05:32N 39°45' W 074°07'0 0.0
2015-Aug-21 04:33N 39°45' W 074°07'0 0.0
2015-Aug-21 03:32N 39°45' W 074°07'0 0.0
2015-Aug-21 02:33N 39°45' W 074°07'0 0.0
2015-Aug-21 01:33N 39°45' W 074°07'0 0.0
2015-Aug-21 00:33N 39°45' W 074°07'  
Track history (hours):
 
Tides and Currents Weather Stations Pressure Air Temp Water Temp Dewpoint Dewpoint Depression Visibility Wind Speed Wind Dir Waves Ship Positions

MV Sea Wolf

Owner: SEA WOLF MARINE TOWING & TRANSPORTATION, Bayonne, NJ. More information available from US FCC via Universal Licensing System and Coast Guard Vessel Documentation Center.

Last reported at 2015-Aug-31 00:06 UTC. Time now 2015-Sep-05 14:14 UTC.
Position N 40°30' W 074°10'.

Length 66 m; draft 10 m.

MMSI: 367002350.

Date/timePositionNaut miles runAvg speedWind from/ knotsBaromVisibWave heightAir tempDewpointWater temp
2015-Aug-31 00:06N 40°30' W 074°10'6 9.2
2015-Aug-30 23:28N 40°29' W 074°03'34 8.6
2015-Aug-30 19:33N 39°55' W 074°03'9 9.1
2015-Aug-30 18:33N 39°46' W 074°05'2 1.6
2015-Aug-30 17:33N 39°45' W 074°07'0 0.0
2015-Aug-30 16:33N 39°45' W 074°07'0 0.0
2015-Aug-30 15:33N 39°45' W 074°07'0 0.0
2015-Aug-30 14:33N 39°45' W 074°07'0 0.0
2015-Aug-30 13:33N 39°45' W 074°07'0 0.0
2015-Aug-30 12:33N 39°45' W 074°07'0 0.0
2015-Aug-30 11:33N 39°45' W 074°07'0 0.0
2015-Aug-30 10:33N 39°45' W 074°07'0 0.0
2015-Aug-30 09:33N 39°45' W 074°07'0 0.0
2015-Aug-30 08:33N 39°45' W 074°07'0 0.0
2015-Aug-30 07:33N 39°45' W 074°07'0 0.0
2015-Aug-30 06:33N 39°45' W 074°07'0 0.0
2015-Aug-30 05:33N 39°45' W 074°07'0 0.0
2015-Aug-30 04:33N 39°45' W 074°07'0 0.0
2015-Aug-30 03:33N 39°45' W 074°07'0 0.0
2015-Aug-30 02:33N 39°45' W 074°07'0 0.0
2015-Aug-30 01:33N 39°45' W 074°07'0 0.0
2015-Aug-30 00:30N 39°45' W 074°07'0 0.0
2015-Aug-29 23:33N 39°45' W 074°07'0 0.0
2015-Aug-29 22:33N 39°45' W 074°07'0 0.0
2015-Aug-29 21:33N 39°45' W 074°07'0 0.0
2015-Aug-29 20:33N 39°45' W 074°07'1 1.4
2015-Aug-29 19:33N 39°45' W 074°05'4 4.0
2015-Aug-29 18:33N 39°41' W 074°07'4 4.1
2015-Aug-29 17:33N 39°38' W 074°10'4 3.9
2015-Aug-29 16:33N 39°35' W 074°13'0 0.4
2015-Aug-29 15:33N 39°34' W 074°13'0 0.0
2015-Aug-29 14:33N 39°34' W 074°13'0 0.0
2015-Aug-29 13:31N 39°34' W 074°13'0 0.0
2015-Aug-29 12:33N 39°34' W 074°13'0 0.3
2015-Aug-29 11:33N 39°34' W 074°13'5 5.4
2015-Aug-29 10:33N 39°39' W 074°09'6 2.0
2015-Aug-29 07:15N 39°45' W 074°07'0 0.0
2015-Aug-29 06:33N 39°45' W 074°07'0 0.0
2015-Aug-29 05:33N 39°45' W 074°07'0 0.0
2015-Aug-29 04:33N 39°45' W 074°07'0 0.0
2015-Aug-29 03:33N 39°45' W 074°07'0 0.0
2015-Aug-29 02:33N 39°45' W 074°07'0 0.0
2015-Aug-29 01:33N 39°45' W 074°07'0 0.0
2015-Aug-29 00:33N 39°45' W 074°07'0 0.0
2015-Aug-28 23:33N 39°45' W 074°07'0 0.0
2015-Aug-28 22:33N 39°45' W 074°07'0 0.0
2015-Aug-28 21:33N 39°45' W 074°07'0 0.0
2015-Aug-28 20:33N 39°45' W 074°07'0 0.0
2015-Aug-28 19:33N 39°45' W 074°07'0 0.0
2015-Aug-28 18:33N 39°45' W 074°07'0 0.0
2015-Aug-28 17:33N 39°45' W 074°07'1 1.2
2015-Aug-28 16:33N 39°45' W 074°05'6 6.0
2015-Aug-28 15:33N 39°40' W 074°09'4 4.0
2015-Aug-28 14:33N 39°37' W 074°11'1 0.8
2015-Aug-28 13:33N 39°37' W 074°11'0 0.1
2015-Aug-28 12:33N 39°37' W 074°10'3 3.5
2015-Aug-28 11:33N 39°40' W 074°08'6 5.7
2015-Aug-28 10:33N 39°45' W 074°05'1 1.2
2015-Aug-28 09:34N 39°45' W 074°07'0 0.0
2015-Aug-28 08:33N 39°45' W 074°07'0 0.0
2015-Aug-28 07:33N 39°45' W 074°07'0 0.0
2015-Aug-28 06:33N 39°45' W 074°07'0 0.0
2015-Aug-28 05:33N 39°45' W 074°07'0 0.0
2015-Aug-28 04:33N 39°45' W 074°07'0 0.0
2015-Aug-28 03:33N 39°45' W 074°07'0 0.0
2015-Aug-28 02:33N 39°45' W 074°07'0 0.0
2015-Aug-28 01:33N 39°45' W 074°07'0 0.0
2015-Aug-28 00:33N 39°45' W 074°07'0 0.0
2015-Aug-27 23:33N 39°45' W 074°07'0 0.0
2015-Aug-27 22:33N 39°45' W 074°07'0 0.0
2015-Aug-27 21:33N 39°45' W 074°07'0 0.0
2015-Aug-27 20:33N 39°45' W 074°07'0 0.0
2015-Aug-27 19:33N 39°45' W 074°07'0 0.0
2015-Aug-27 18:33N 39°45' W 074°07'0 0.0
2015-Aug-27 17:33N 39°45' W 074°07'0 0.0
2015-Aug-27 16:33N 39°45' W 074°07'0 0.0
2015-Aug-27 15:33N 39°45' W 074°07'0 0.0
2015-Aug-27 14:33N 39°45' W 074°07'0 0.0
2015-Aug-27 13:33N 39°45' W 074°07'0 0.0
2015-Aug-27 12:33N 39°45' W 074°07'0 0.0
2015-Aug-27 11:34N 39°45' W 074°07'0 0.0
2015-Aug-27 10:34N 39°45' W 074°07'0 0.0
2015-Aug-27 09:33N 39°45' W 074°07'0 0.0
2015-Aug-27 08:34N 39°45' W 074°07'0 0.0
2015-Aug-27 07:33N 39°45' W 074°07'0 0.0
2015-Aug-27 06:34N 39°45' W 074°07'0 0.0
2015-Aug-27 05:33N 39°45' W 074°07'0 0.0
2015-Aug-27 04:33N 39°45' W 074°07'0 0.0
2015-Aug-27 03:33N 39°45' W 074°07'0 0.0
2015-Aug-27 02:33N 39°45' W 074°07'0 0.0
2015-Aug-27 01:33N 39°45' W 074°07'0 0.0
2015-Aug-27 00:33N 39°45' W 074°07'0 0.0
2015-Aug-26 23:34N 39°45' W 074°07'0 0.0
2015-Aug-26 22:33N 39°45' W 074°07'0 0.0
2015-Aug-26 21:33N 39°45' W 074°07'4 3.7
2015-Aug-26 20:33N 39°41' W 074°08'6 5.7
2015-Aug-26 19:34N 39°37' W 074°11'0 0.0
2015-Aug-26 18:33N 39°37' W 074°11'0 0.0
2015-Aug-26 17:33N 39°37' W 074°11'0 0.0
2015-Aug-26 16:33N 39°37' W 074°11'0 0.1
2015-Aug-26 15:33N 39°37' W 074°12'10 3.3
2015-Aug-26 12:33N 39°45' W 074°05'1 1.5
2015-Aug-26 11:34N 39°46' W 074°07'1 0.8
2015-Aug-26 10:33N 39°45' W 074°07'0 0.0
2015-Aug-26 09:33N 39°45' W 074°07'0 0.0
2015-Aug-26 08:33N 39°45' W 074°07'0 0.0
2015-Aug-26 07:33N 39°45' W 074°07'0 0.0
2015-Aug-26 06:33N 39°45' W 074°07'0 0.0
2015-Aug-26 05:33N 39°45' W 074°07'0 0.0
2015-Aug-26 04:33N 39°45' W 074°07'0 0.0
2015-Aug-26 03:33N 39°45' W 074°07'0 0.0
2015-Aug-26 02:33N 39°45' W 074°07'0 0.0
2015-Aug-26 01:33N 39°45' W 074°07'0 0.0
2015-Aug-26 00:33N 39°45' W 074°07'0 0.0
2015-Aug-25 23:33N 39°45' W 074°07'1 1.0
2015-Aug-25 22:33N 39°46' W 074°06'2 2.0
2015-Aug-25 21:33N 39°44' W 074°06'5 5.1
2015-Aug-25 20:33N 39°39' W 074°09'33 4.1
2015-Aug-25 12:31N 39°13' W 074°35'0 0.0
2015-Aug-25 04:26N 39°14' W 074°36'0 0.0
2015-Aug-25 03:19N 39°14' W 074°36'0 0.0
2015-Aug-25 02:33N 39°14' W 074°36'0 0.0
2015-Aug-25 01:30N 39°14' W 074°36'14 1.3
2015-Aug-24 14:31N 39°22' W 074°21'7 6.6
2015-Aug-24 13:30N 39°28' W 074°16'7 7.0
2015-Aug-24 12:33N 39°33' W 074°12'7 7.0
2015-Aug-24 11:33N 39°40' W 074°08'6 5.9
2015-Aug-24 10:33N 39°45' W 074°05'1 1.3
2015-Aug-24 09:33N 39°45' W 074°07'0 0.0
2015-Aug-24 08:33N 39°45' W 074°07'0 0.0
2015-Aug-24 07:33N 39°45' W 074°07'0 0.0
2015-Aug-24 06:33N 39°45' W 074°07'0 0.0
2015-Aug-24 05:33N 39°45' W 074°07'0 0.0
2015-Aug-24 04:33N 39°45' W 074°07'0 0.0
2015-Aug-24 03:33N 39°45' W 074°07'0 0.0
2015-Aug-24 02:33N 39°45' W 074°07'0 0.0
2015-Aug-24 01:33N 39°45' W 074°07'0 0.0
2015-Aug-24 00:33N 39°45' W 074°07'0 0.0
2015-Aug-23 23:32N 39°45' W 074°07'0 0.0
2015-Aug-23 22:33N 39°45' W 074°07'0 0.0
2015-Aug-23 21:33N 39°45' W 074°07'0 0.0
2015-Aug-23 20:33N 39°45' W 074°07'0 0.0
2015-Aug-23 19:33N 39°45' W 074°07'0 0.0
2015-Aug-23 18:33N 39°45' W 074°07'0 0.0
2015-Aug-23 17:33N 39°45' W 074°07'0 0.0
2015-Aug-23 16:33N 39°45' W 074°07'0 0.0
2015-Aug-23 15:33N 39°45' W 074°07'0 0.0
2015-Aug-23 14:33N 39°45' W 074°07'0 0.0
2015-Aug-23 13:33N 39°45' W 074°07'0 0.0
2015-Aug-23 12:30N 39°45' W 074°07'0 0.0
2015-Aug-23 11:28N 39°45' W 074°07'0 0.0
2015-Aug-23 10:33N 39°45' W 074°07'0 0.0
2015-Aug-23 09:33N 39°45' W 074°07'0 0.0
2015-Aug-23 08:33N 39°45' W 074°07'0 0.0
2015-Aug-23 07:33N 39°45' W 074°07'0 0.0
2015-Aug-23 06:33N 39°45' W 074°07'0 0.0
2015-Aug-23 05:33N 39°45' W 074°07'0 0.0
2015-Aug-23 04:33N 39°45' W 074°07'0 0.0
2015-Aug-23 03:31N 39°45' W 074°07'0 0.0
2015-Aug-23 02:32N 39°45' W 074°07'0 0.0
2015-Aug-23 01:33N 39°45' W 074°07'0 0.0
2015-Aug-23 00:33N 39°45' W 074°07'0 0.0
2015-Aug-22 23:33N 39°45' W 074°07'0 0.0
2015-Aug-22 22:33N 39°45' W 074°07'0 0.0
2015-Aug-22 21:32N 39°45' W 074°07'0 0.0
2015-Aug-22 20:33N 39°45' W 074°07'0 0.0
2015-Aug-22 19:32N 39°45' W 074°07'0 0.0
2015-Aug-22 18:33N 39°45' W 074°07'0 0.0
2015-Aug-22 17:33N 39°45' W 074°07'2 1.7
2015-Aug-22 16:33N 39°44' W 074°06'4 4.3
2015-Aug-22 15:33N 39°40' W 074°09'4 4.2
2015-Aug-22 14:33N 39°37' W 074°12'0 0.1
2015-Aug-22 13:33N 39°37' W 074°11'0 0.0
2015-Aug-22 12:33N 39°37' W 074°11'2 2.1
2015-Aug-22 11:33N 39°38' W 074°10'6 6.4
2015-Aug-22 10:33N 39°44' W 074°06'2 0.1
2015-Aug-21 18:19N 39°45' W 074°07'0 0.0
2015-Aug-21 17:33N 39°45' W 074°07'0 0.0
2015-Aug-21 16:33N 39°45' W 074°07'0 0.0
2015-Aug-21 15:33N 39°45' W 074°07'0 0.4
2015-Aug-21 14:33N 39°46' W 074°07'0 0.4
2015-Aug-21 13:33N 39°45' W 074°07'0 0.0
2015-Aug-21 12:33N 39°45' W 074°07'0 0.0
2015-Aug-21 11:33N 39°45' W 074°07'0 0.0
2015-Aug-21 10:33N 39°45' W 074°07'0 0.0
2015-Aug-21 09:33N 39°45' W 074°07'0 0.0
2015-Aug-21 08:33N 39°45' W 074°07'0 0.0
2015-Aug-21 07:33N 39°45' W 074°07'0 0.0
2015-Aug-21 06:33N 39°45' W 074°07'0 0.0
2015-Aug-21 05:32N 39°45' W 074°07'0 0.0
2015-Aug-21 04:33N 39°45' W 074°07'0 0.0
2015-Aug-21 03:32N 39°45' W 074°07'0 0.0
2015-Aug-21 02:33N 39°45' W 074°07'0 0.0
2015-Aug-21 01:33N 39°45' W 074°07'0 0.0
2015-Aug-21 00:33N 39°45' W 074°07'  

Dump ship's entire track history